Essendon, Australia
Current Conditions -  °F | °C
As of 6:00 PM on Friday 19 Dec 2014 (Local Time) from YMEN Reporting Station
Scattered Clouds Scattered Clouds  
Wind Chill: 63°   Ceiling: Unl
Heat Index: 63°   Visibility: 6mi
Dew Point: 46°   Wind: 14mph
Humidity: 55%   Direction: 170°S
Pressure: 30.06"   Gusts: NA
Location:  37.75°S, 144.91°E
Report Text: YMEN 190700Z AUTO 17012KT 9999 // SCT039 17/08 Q1018
Loading
Personal Weather Stations






























Interactive Weather Map New forecast layout! Learn more

10-Day Weather Forecast

Advertisements
Track Severe Weather on mobile